Time;durP1;ratioP1;P1;durP2;ratioP2;P2;SDS_P1;SDS_P2;PMS_P1;PMS_P2;Temp;Humidity;BMP_temperature;BMP_pressure;BME280_temperature;BME280_humidity;BME280_pressure;Samples;Min_cycle;Max_cycle;Signal;HPM_P1;HPM_P2
2022/07/31 00:00:18;;;;;;;2.43;1.90;;;21.30;74.20;;;;;;5047581;28;20483;-49
2022/07/31 00:02:45;;;;;;;3.30;2.03;;;21.10;74.20;;;;;;5034034;28;20579;-49
2022/07/31 00:05:12;;;;;;;3.33;1.90;;;21.00;74.90;;;;;;5069900;28;20528;-49
2022/07/31 00:07:39;;;;;;;3.63;2.33;;;20.90;75.10;;;;;;5047670;28;20943;-49
2022/07/31 00:10:06;;;;;;;2.30;2.10;;;20.80;74.70;;;;;;5047100;28;20534;-49
2022/07/31 00:12:34;;;;;;;2.40;2.03;;;20.80;75.10;;;;;;5047197;28;20479;-49
2022/07/31 00:15:01;;;;;;;9.50;2.40;;;20.70;75.90;;;;;;5044697;28;20466;-49
2022/07/31 00:17:28;;;;;;;6.33;2.67;;;20.70;76.40;;;;;;5044948;28;21178;-50
2022/07/31 00:19:54;;;;;;;4.00;2.37;;;20.70;76.10;;;;;;5048842;28;20839;-49
2022/07/31 00:22:21;;;;;;;5.53;2.07;;;20.70;75.90;;;;;;5050858;28;20483;-50
2022/07/31 00:24:48;;;;;;;6.80;2.20;;;20.60;75.40;;;;;;5039221;28;20485;-49
2022/07/31 00:27:14;;;;;;;2.20;1.83;;;20.60;75.60;;;;;;5063578;28;20478;-49
2022/07/31 00:29:42;;;;;;;2.47;2.20;;;20.50;75.20;;;;;;5041596;28;20476;-49
2022/07/31 00:32:10;;;;;;;10.90;2.60;;;20.50;75.20;;;;;;5046854;28;20518;-49
2022/07/31 00:34:36;;;;;;;3.07;2.10;;;20.40;75.80;;;;;;5034025;28;20490;-49
2022/07/31 00:37:03;;;;;;;3.43;2.33;;;20.40;76.20;;;;;;5048717;28;20539;-50
2022/07/31 00:39:31;;;;;;;10.20;2.60;;;20.40;76.00;;;;;;5047325;28;20483;-49
2022/07/31 00:41:58;;;;;;;2.83;2.40;;;20.30;76.10;;;;;;5047582;28;20553;-50
2022/07/31 00:44:25;;;;;;;2.67;2.27;;;20.20;75.20;;;;;;5044620;28;20483;-49
2022/07/31 00:46:53;;;;;;;2.93;2.63;;;20.20;75.60;;;;;;5041313;28;20986;-49
2022/07/31 00:49:20;;;;;;;2.60;2.40;;;20.20;74.90;;;;;;5049551;28;20532;-49
2022/07/31 00:51:47;;;;;;;2.50;1.90;;;20.20;75.30;;;;;;5049517;28;20547;-49
2022/07/31 00:54:14;;;;;;;3.90;1.93;;;20.10;75.60;;;;;;5044924;28;20889;-49
2022/07/31 00:56:41;;;;;;;2.50;2.30;;;20.10;75.90;;;;;;5049066;28;21011;-49
2022/07/31 00:59:07;;;;;;;4.17;2.30;;;19.90;76.50;;;;;;5050699;28;21191;-49
2022/07/31 01:01:34;;;;;;;3.40;1.90;;;19.90;76.60;;;;;;5044907;28;20471;-49
2022/07/31 01:04:02;;;;;;;2.47;2.00;;;19.80;76.90;;;;;;5045373;28;20490;-50
2022/07/31 01:06:29;;;;;;;2.17;1.87;;;19.80;77.60;;;;;;5049477;28;20569;-50
2022/07/31 01:08:56;;;;;;;2.70;2.10;;;19.50;78.40;;;;;;5049117;28;20871;-49
2022/07/31 01:11:33;;;;;;;3.87;2.47;;;19.40;78.60;;;;;;5047572;28;20478;-49
2022/07/31 01:14:02;;;;;;;2.40;1.90;;;19.10;78.80;;;;;;5035394;28;20524;-49
2022/07/31 01:16:33;;;;;;;2.70;2.40;;;19.10;79.40;;;;;;5050329;28;20956;-50
2022/07/31 01:19:09;;;;;;;4.57;2.57;;;19.10;79.50;;;;;;5059062;28;20550;-49
2022/07/31 01:21:42;;;;;;;3.57;2.10;;;19.10;79.20;;;;;;5043437;28;20483;-49
2022/07/31 01:24:29;;;;;;;4.03;2.27;;;19.00;79.70;;;;;;5043014;28;21223;-49
2022/07/31 01:27:02;;;;;;;4.10;2.10;;;19.00;79.00;;;;;;5047557;28;20501;-49
2022/07/31 01:29:35;;;;;;;3.03;2.60;;;19.00;78.90;;;;;;5037253;28;20472;-49
2022/07/31 01:32:05;;;;;;;3.50;1.87;;;19.10;78.80;;;;;;5038766;28;20486;-49
2022/07/31 01:34:39;;;;;;;3.60;2.53;;;19.10;78.60;;;;;;5047183;28;20542;-50
2022/07/31 01:37:12;;;;;;;2.50;2.30;;;19.00;78.90;;;;;;5046052;28;20514;-50
2022/07/31 01:39:43;;;;;;;2.60;2.20;;;19.00;78.90;;;;;;5032663;28;21097;-50
2022/07/31 01:42:13;;;;;;;2.60;2.13;;;19.00;79.60;;;;;;5037759;28;21144;-50
2022/07/31 01:44:45;;;;;;;3.23;2.57;;;18.90;79.30;;;;;;5035095;28;20786;-49
2022/07/31 01:47:16;;;;;;;3.10;2.27;;;18.90;78.70;;;;;;5036726;28;20826;-49
2022/07/31 01:49:45;;;;;;;6.63;2.27;;;18.80;79.30;;;;;;5037431;28;20481;-50
2022/07/31 01:52:13;;;;;;;5.07;3.10;;;18.60;79.90;;;;;;5038311;28;21095;-49
2022/07/31 01:54:41;;;;;;;2.93;2.63;;;18.60;80.10;;;;;;5051695;28;20570;-50
2022/07/31 01:57:10;;;;;;;3.77;2.50;;;18.40;80.50;;;;;;5038975;28;20478;-50
2022/07/31 01:59:38;;;;;;;3.33;2.30;;;18.30;80.90;;;;;;5037201;28;20479;-50
2022/07/31 02:02:06;;;;;;;3.13;2.60;;;18.30;81.20;;;;;;5038742;28;20514;-50
2022/07/31 02:04:34;;;;;;;4.10;2.47;;;18.30;81.30;;;;;;5036445;28;20480;-50
2022/07/31 02:07:02;;;;;;;3.10;2.20;;;18.10;82.00;;;;;;5034187;28;20478;-50
2022/07/31 02:09:31;;;;;;;4.27;3.17;;;17.90;81.20;;;;;;5038015;28;20503;-50
2022/07/31 02:11:58;;;;;;;5.50;2.47;;;17.90;81.00;;;;;;5038129;28;20545;-50
2022/07/31 02:14:27;;;;;;;4.10;2.80;;;17.90;81.30;;;;;;5037579;28;20488;-50
2022/07/31 02:16:55;;;;;;;2.10;1.80;;;18.00;80.80;;;;;;5041394;28;20486;-49
2022/07/31 02:19:24;;;;;;;5.60;2.50;;;18.10;80.40;;;;;;5047712;28;20538;-50
2022/07/31 02:21:51;;;;;;;4.57;2.73;;;18.20;81.00;;;;;;5030027;28;20486;-50
2022/07/31 02:24:18;;;;;;;3.20;2.43;;;18.20;81.00;;;;;;5032294;28;20484;-50
2022/07/31 02:26:46;;;;;;;5.30;2.70;;;18.00;81.50;;;;;;5034620;28;20489;-50
2022/07/31 02:29:14;;;;;;;4.17;1.90;;;17.80;81.80;;;;;;5035684;28;20536;-50
2022/07/31 02:31:43;;;;;;;5.10;3.27;;;;;;;;;;5024385;28;20476;-50
2022/07/31 02:34:11;;;;;;;4.87;2.77;;;17.60;82.40;;;;;;5065757;28;20471;-50
2022/07/31 02:36:39;;;;;;;3.57;2.83;;;17.50;82.80;;;;;;5035151;28;20904;-50
2022/07/31 02:39:10;;;;;;;8.03;2.80;;;17.40;83.10;;;;;;5042438;28;20699;-49
2022/07/31 02:41:36;;;;;;;3.17;2.87;;;17.40;83.30;;;;;;5037645;28;20480;-50
2022/07/31 02:44:04;;;;;;;4.00;2.50;;;17.40;83.00;;;;;;5038314;28;20480;-50
2022/07/31 02:46:31;;;;;;;3.03;2.30;;;17.40;82.40;;;;;;5037143;28;20533;-50
2022/07/31 02:48:58;;;;;;;4.07;2.70;;;17.50;82.10;;;;;;5039160;28;21178;-50
2022/07/31 02:51:25;;;;;;;2.97;2.67;;;17.60;82.00;;;;;;5037778;28;20675;-50
2022/07/31 02:53:53;;;;;;;6.40;2.67;;;17.50;82.10;;;;;;5035651;28;20541;-50
2022/07/31 02:56:21;;;;;;;3.40;2.20;;;17.50;82.70;;;;;;5037340;28;20475;-50
2022/07/31 02:58:48;;;;;;;3.53;2.43;;;17.50;82.10;;;;;;5041846;28;21082;-50
2022/07/31 03:01:15;;;;;;;4.03;2.83;;;17.50;82.30;;;;;;5033026;28;21016;-50
2022/07/31 03:03:42;;;;;;;3.57;2.83;;;17.40;82.80;;;;;;5054622;28;20479;-51
2022/07/31 03:06:09;;;;;;;3.43;2.53;;;17.30;82.90;;;;;;5043238;28;20483;-50
2022/07/31 03:08:35;;;;;;;2.80;2.50;;;17.20;83.20;;;;;;5036664;28;20492;-50
2022/07/31 03:11:04;;;;;;;4.90;3.23;;;17.10;83.10;;;;;;5034653;28;20505;-50
2022/07/31 03:13:33;;;;;;;3.13;2.80;;;17.10;83.30;;;;;;5041624;28;21037;-50
2022/07/31 03:16:01;;;;;;;6.30;2.80;;;17.00;84.00;;;;;;5039390;28;20475;-50
2022/07/31 03:18:29;;;;;;;3.20;2.37;;;16.90;83.90;;;;;;5037965;28;20707;-50
2022/07/31 03:20:57;;;;;;;2.70;2.50;;;16.90;83.90;;;;;;5036540;28;20890;-51
2022/07/31 03:23:25;;;;;;;7.40;3.00;;;17.00;84.40;;;;;;5044714;28;20479;-50
2022/07/31 03:25:54;;;;;;;2.67;2.47;;;16.80;83.70;;;;;;5039127;28;21057;-50
2022/07/31 03:28:22;;;;;;;4.30;2.90;;;16.90;84.30;;;;;;5038464;28;20541;-50
2022/07/31 03:30:51;;;;;;;4.10;3.27;;;16.90;83.40;;;;;;5040242;28;20472;-50
2022/07/31 03:33:18;;;;;;;3.30;2.63;;;16.90;83.90;;;;;;5039778;28;20487;-50
2022/07/31 03:35:45;;;;;;;4.47;3.07;;;16.90;84.60;;;;;;5035881;28;20513;-50
2022/07/31 03:38:11;;;;;;;3.53;3.20;;;16.90;84.70;;;;;;5044932;28;20524;-51
2022/07/31 03:40:38;;;;;;;3.00;2.60;;;16.80;85.00;;;;;;5040211;28;20476;-51
2022/07/31 03:43:05;;;;;;;4.10;3.70;;;16.60;85.40;;;;;;5042393;28;20541;-50
2022/07/31 03:45:34;;;;;;;4.87;3.10;;;16.40;87.10;;;;;;5040154;28;20545;-51
2022/07/31 03:48:01;;;;;;;3.63;3.33;;;16.40;87.30;;;;;;5039355;28;20872;-50
2022/07/31 03:50:28;;;;;;;12.40;3.17;;;16.30;87.70;;;;;;5039279;28;21039;-50
2022/07/31 03:52:56;;;;;;;5.20;3.63;;;16.30;87.40;;;;;;5041857;28;20514;-49
2022/07/31 03:55:22;;;;;;;4.03;3.60;;;16.30;87.70;;;;;;5038733;28;20488;-50
2022/07/31 03:57:49;;;;;;;3.60;2.53;;;16.30;87.80;;;;;;5041191;28;21067;-50
2022/07/31 04:00:19;;;;;;;4.37;3.90;;;16.30;88.00;;;;;;5041165;28;20487;-50
2022/07/31 04:02:47;;;;;;;2.50;2.23;;;16.30;87.50;;;;;;5016929;28;20506;-50
2022/07/31 04:05:14;;;;;;;3.80;3.27;;;16.40;87.20;;;;;;5049516;28;20529;-50
2022/07/31 04:07:40;;;;;;;2.80;2.60;;;16.40;86.90;;;;;;5039167;28;20984;-50
2022/07/31 04:10:08;;;;;;;4.70;3.80;;;16.40;86.90;;;;;;5040939;28;20476;-50
2022/07/31 04:12:35;;;;;;;4.87;4.37;;;16.60;85.70;;;;;;5039739;28;20488;-49
2022/07/31 04:15:01;;;;;;;4.27;3.00;;;16.60;86.20;;;;;;5039049;28;20568;-50
2022/07/31 04:17:28;;;;;;;3.13;2.77;;;16.60;86.20;;;;;;5038538;28;21094;-50
2022/07/31 04:19:56;;;;;;;4.47;3.17;;;16.70;86.00;;;;;;5039777;28;20529;-50
2022/07/31 04:22:22;;;;;;;5.50;4.80;;;16.70;86.00;;;;;;5040285;28;20492;-51
2022/07/31 04:24:49;;;;;;;4.17;3.77;;;16.80;85.80;;;;;;5038278;28;20565;-50
2022/07/31 04:27:17;;;;;;;3.27;3.00;;;16.80;85.20;;;;;;5040429;28;20484;-50
2022/07/31 04:29:45;;;;;;;4.73;3.10;;;16.80;85.60;;;;;;5043743;28;20472;-50
2022/07/31 04:32:11;;;;;;;3.53;3.23;;;16.80;85.60;;;;;;5040287;28;20853;-50
2022/07/31 04:34:38;;;;;;;3.30;2.93;;;16.90;85.40;;;;;;5038259;28;20541;-49
2022/07/31 04:37:06;;;;;;;3.90;2.83;;;16.90;85.40;;;;;;5037117;28;21037;-50
2022/07/31 04:39:33;;;;;;;3.63;2.83;;;17.00;85.10;;;;;;5037359;28;20530;-50
2022/07/31 04:42:00;;;;;;;3.53;2.90;;;17.00;85.00;;;;;;5040427;28;20903;-50
2022/07/31 04:44:27;;;;;;;4.57;3.70;;;17.10;84.80;;;;;;5036432;28;20541;-49
2022/07/31 04:46:58;;;;;;;3.60;3.30;;;17.20;84.50;;;;;;5040080;28;20874;-54
2022/07/31 04:49:24;;;;;;;7.50;2.93;;;17.30;85.30;;;;;;5038774;28;20577;-50
2022/07/31 04:51:51;;;;;;;5.80;3.80;;;17.30;84.60;;;;;;5041723;28;20569;-50
2022/07/31 04:54:19;;;;;;;3.70;3.40;;;17.30;84.60;;;;;;5036695;28;20857;-50
2022/07/31 04:56:47;;;;;;;4.67;2.90;;;17.40;85.40;;;;;;5041591;28;20991;-50
2022/07/31 04:59:16;;;;;;;3.10;2.60;;;17.50;85.40;;;;;;5040322;28;20472;-49
2022/07/31 05:01:44;;;;;;;3.73;3.43;;;17.50;85.10;;;;;;5038905;28;20482;-50
2022/07/31 05:04:10;;;;;;;9.53;3.03;;;17.50;84.70;;;;;;5037935;28;20487;-50
2022/07/31 05:06:39;;;;;;;4.30;3.90;;;17.50;85.20;;;;;;5038649;28;20537;-50
2022/07/31 05:09:08;;;;;;;3.60;3.00;;;17.60;84.40;;;;;;5039494;28;20546;-50
2022/07/31 05:11:37;;;;;;;5.10;3.60;;;17.50;83.60;;;;;;5038471;28;21060;-50
2022/07/31 05:14:05;;;;;;;6.30;3.80;;;17.60;83.60;;;;;;5038451;28;20890;-49
2022/07/31 05:16:32;;;;;;;5.13;3.33;;;17.60;83.90;;;;;;5038111;28;20487;-50
2022/07/31 05:19:00;;;;;;;3.27;2.97;;;17.60;84.30;;;;;;5038773;28;21003;-51
2022/07/31 05:21:29;;;;;;;4.87;4.40;;;17.60;84.30;;;;;;5037349;28;20914;-50
2022/07/31 05:23:56;;;;;;;4.00;3.10;;;17.70;84.20;;;;;;5037017;28;20568;-50
2022/07/31 05:26:23;;;;;;;5.50;4.70;;;17.70;84.90;;;;;;5033357;28;20491;-50
2022/07/31 05:28:54;;;;;;;4.80;3.60;;;17.70;84.80;;;;;;5051670;28;20475;-49
2022/07/31 05:31:21;;;;;;;3.43;2.73;;;17.70;84.60;;;;;;5028467;28;20526;-50
2022/07/31 05:33:50;;;;;;;4.13;3.73;;;17.70;84.60;;;;;;5038717;28;20480;-49
2022/07/31 05:36:18;;;;;;;3.80;3.17;;;17.80;84.40;;;;;;5039159;28;20529;-50
2022/07/31 05:38:45;;;;;;;3.50;2.83;;;17.80;85.90;;;;;;5037233;28;20486;-50
2022/07/31 05:41:12;;;;;;;5.33;2.97;;;17.90;85.80;;;;;;5038004;28;20522;-50
2022/07/31 05:43:38;;;;;;;4.73;3.87;;;18.00;84.10;;;;;;5041863;28;20478;-49
2022/07/31 05:46:07;;;;;;;3.07;2.67;;;18.10;84.70;;;;;;5040788;28;20968;-50
2022/07/31 05:48:34;;;;;;;3.50;3.20;;;18.20;85.10;;;;;;5037947;28;20486;-49
2022/07/31 05:51:00;;;;;;;3.63;3.33;;;18.30;85.10;;;;;;5039560;28;20487;-49
2022/07/31 05:53:27;;;;;;;3.70;3.17;;;18.40;84.60;;;;;;5036179;28;20985;-50
2022/07/31 05:55:54;;;;;;;5.10;3.77;;;18.50;85.90;;;;;;5038580;28;20883;-49
2022/07/31 05:58:20;;;;;;;8.10;3.67;;;18.60;85.00;;;;;;5036664;28;20483;-49
2022/07/31 06:00:49;;;;;;;3.20;2.90;;;18.60;86.20;;;;;;5036075;28;20534;-49
2022/07/31 06:03:23;;;;;;;3.73;3.30;;;18.90;84.00;;;;;;5035531;28;20484;-49
2022/07/31 06:05:50;;;;;;;4.60;3.20;;;19.10;83.00;;;;;;5038103;28;20883;-49
2022/07/31 06:08:17;;;;;;;7.03;3.10;;;19.20;82.60;;;;;;5046271;28;23418;-49
2022/07/31 06:10:44;;;;;;;4.83;4.37;;;19.30;83.20;;;;;;5040310;28;20896;-49
2022/07/31 06:13:11;;;;;;;5.07;4.27;;;19.60;83.30;;;;;;5046633;28;20901;-49
2022/07/31 06:15:38;;;;;;;4.20;3.80;;;19.80;83.10;;;;;;5041002;28;20483;-49
2022/07/31 06:18:05;;;;;;;3.90;3.33;;;20.00;83.70;;;;;;5038561;28;20858;-49
2022/07/31 06:20:34;;;;;;;5.73;3.60;;;20.20;81.90;;;;;;5037921;28;20480;-50
2022/07/31 06:23:00;;;;;;;4.13;3.43;;;20.50;81.60;;;;;;5040331;28;20482;-50
2022/07/31 06:25:27;;;;;;;5.03;4.47;;;20.50;82.10;;;;;;5039086;28;20980;-50
2022/07/31 06:27:54;;;;;;;3.97;3.23;;;20.70;81.60;;;;;;5034795;28;20486;-50
2022/07/31 06:30:21;;;;;;;3.90;3.20;;;20.90;82.10;;;;;;5052916;28;20977;-50
2022/07/31 06:32:47;;;;;;;3.70;3.33;;;21.10;80.90;;;;;;5042678;28;20977;-50
2022/07/31 06:35:14;;;;;;;3.77;3.30;;;21.20;81.50;;;;;;5042400;28;21006;-49
2022/07/31 06:37:42;;;;;;;5.60;3.70;;;21.30;81.20;;;;;;5041909;28;20484;-50
2022/07/31 06:40:10;;;;;;;4.77;4.10;;;21.60;80.80;;;;;;5041466;28;20488;-50
2022/07/31 06:42:37;;;;;;;7.63;3.37;;;21.90;80.40;;;;;;5042586;28;20486;-50
2022/07/31 06:45:04;;;;;;;4.77;3.10;;;22.00;80.60;;;;;;5044037;28;20494;-50
2022/07/31 06:47:31;;;;;;;7.03;3.40;;;22.30;79.10;;;;;;5044297;28;20474;-50
2022/07/31 06:49:58;;;;;;;3.30;2.93;;;22.50;79.00;;;;;;5046174;28;20483;-50
2022/07/31 06:52:25;;;;;;;4.10;3.80;;;22.80;78.30;;;;;;5043593;28;20879;-50
2022/07/31 06:54:53;;;;;;;3.53;3.03;;;23.10;77.00;;;;;;5043422;28;20488;-50
2022/07/31 06:57:19;;;;;;;3.30;2.67;;;23.40;75.30;;;;;;5044295;28;20471;-50
2022/07/31 06:59:47;;;;;;;5.07;3.20;;;23.80;73.70;;;;;;5040855;28;20618;-50
2022/07/31 07:02:14;;;;;;;3.83;3.10;;;24.10;72.10;;;;;;5041903;28;20525;-50
2022/07/31 07:04:40;;;;;;;3.43;3.13;;;24.10;72.70;;;;;;5045832;28;21221;-50
2022/07/31 07:07:07;;;;;;;3.90;3.20;;;24.30;71.30;;;;;;5044297;28;20574;-50
2022/07/31 07:09:34;;;;;;;3.30;3.00;;;24.40;70.60;;;;;;5039625;28;20503;-51
2022/07/31 07:12:02;;;;;;;3.90;3.27;;;24.70;69.90;;;;;;5042886;28;20544;-52
2022/07/31 07:14:28;;;;;;;3.50;3.20;;;24.80;70.60;;;;;;5040703;28;20503;-50
2022/07/31 07:16:55;;;;;;;4.00;2.77;;;25.00;69.20;;;;;;5041764;28;20775;-50
2022/07/31 07:19:22;;;;;;;3.70;2.97;;;25.20;68.70;;;;;;5041598;28;20859;-51
2022/07/31 07:21:48;;;;;;;3.93;2.37;;;25.60;67.00;;;;;;5041578;28;21319;-50
2022/07/31 07:24:15;;;;;;;4.63;3.07;;;25.50;65.10;;;;;;5042895;28;20654;-50
2022/07/31 07:26:42;;;;;;;3.40;3.10;;;25.50;65.10;;;;;;5040991;28;20881;-50
2022/07/31 07:29:10;;;;;;;3.83;2.87;;;25.50;65.10;;;;;;5042051;28;20980;-51
2022/07/31 07:31:37;;;;;;;3.73;3.10;;;25.60;66.10;;;;;;5038822;28;20499;-50
2022/07/31 07:34:05;;;;;;;5.53;3.37;;;25.70;64.30;;;;;;5038685;28;20495;-51
2022/07/31 07:36:32;;;;;;;2.80;2.60;;;25.80;65.40;;;;;;5043007;28;20833;-51
2022/07/31 07:38:58;;;;;;;3.13;2.50;;;25.90;65.60;;;;;;5034688;28;20463;-50
2022/07/31 07:41:25;;;;;;;3.20;2.73;;;26.10;65.90;;;;;;5041708;28;20480;-51
2022/07/31 07:43:53;;;;;;;5.63;2.63;;;26.50;62.30;;;;;;5040483;28;20923;-50
2022/07/31 07:46:21;;;;;;;3.13;2.90;;;26.50;63.00;;;;;;5042788;28;20479;-50
2022/07/31 07:48:49;;;;;;;3.33;2.37;;;26.70;63.00;;;;;;5039317;28;20483;-50
2022/07/31 07:51:16;;;;;;;2.93;2.57;;;26.90;62.10;;;;;;5041759;28;21027;-51
2022/07/31 07:53:43;;;;;;;3.23;2.00;;;27.10;61.80;;;;;;5041199;28;20528;-50
2022/07/31 07:56:09;;;;;;;4.63;2.30;;;27.30;61.10;;;;;;5043411;28;20901;-49
2022/07/31 07:58:36;;;;;;;3.50;2.40;;;27.30;61.20;;;;;;5042987;28;20480;-50
2022/07/31 08:01:03;;;;;;;2.17;1.97;;;27.20;60.50;;;;;;5043223;28;20479;-51
2022/07/31 08:03:31;;;;;;;3.33;2.73;;;27.30;61.00;;;;;;5039491;28;20635;-52
2022/07/31 08:05:57;;;;;;;3.40;2.53;;;27.30;60.10;;;;;;5040622;28;20525;-51
2022/07/31 08:08:24;;;;;;;4.00;2.90;;;27.30;61.40;;;;;;5038520;28;20476;-52
2022/07/31 08:10:51;;;;;;;2.70;2.40;;;27.30;61.30;;;;;;5043439;28;21090;-52
2022/07/31 08:13:18;;;;;;;3.93;2.47;;;27.30;61.60;;;;;;5043042;28;20504;-51
2022/07/31 08:15:45;;;;;;;5.50;2.80;;;27.30;62.10;;;;;;5040972;28;20484;-52
2022/07/31 08:18:11;;;;;;;3.77;2.80;;;27.50;61.00;;;;;;5043297;28;20970;-51
2022/07/31 08:20:39;;;;;;;6.37;2.60;;;27.70;60.50;;;;;;5044114;28;20480;-52
2022/07/31 08:23:06;;;;;;;3.70;2.40;;;27.80;60.30;;;;;;5041705;28;20479;-52
2022/07/31 08:25:33;;;;;;;3.97;2.40;;;27.80;60.90;;;;;;5041100;28;20508;-51
2022/07/31 08:28:00;;;;;;;6.77;2.73;;;27.90;61.40;;;;;;5040457;28;20467;-51
2022/07/31 08:30:26;;;;;;;5.17;3.80;;;28.00;60.40;;;;;;5046064;28;21662;-52
2022/07/31 08:32:53;;;;;;;4.67;3.10;;;28.00;60.60;;;;;;5042102;28;20541;-51
2022/07/31 08:35:20;;;;;;;2.70;2.50;;;28.00;60.20;;;;;;5039290;28;20533;-49
2022/07/31 08:37:48;;;;;;;4.00;2.70;;;28.10;60.00;;;;;;5041625;28;20475;-51
2022/07/31 08:40:17;;;;;;;4.33;2.60;;;28.20;60.20;;;;;;5041350;28;20484;-50
2022/07/31 08:42:45;;;;;;;3.33;2.40;;;28.20;59.80;;;;;;5040761;28;20454;-50
2022/07/31 08:45:13;;;;;;;7.43;3.10;;;28.20;60.40;;;;;;5040742;28;20480;-50
2022/07/31 08:47:44;;;;;;;4.13;2.80;;;28.60;60.30;;;;;;5040433;28;20546;-50
2022/07/31 08:50:14;;;;;;;4.00;2.70;;;28.80;59.60;;;;;;5042430;28;21069;-50
2022/07/31 08:52:43;;;;;;;3.30;3.00;;;28.80;60.50;;;;;;5040879;28;20547;-51
2022/07/31 08:55:12;;;;;;;4.93;3.20;;;29.00;59.90;;;;;;5038736;28;20847;-50
2022/07/31 08:57:39;;;;;;;3.90;3.23;;;29.20;59.60;;;;;;5040072;28;20974;-51
2022/07/31 09:00:07;;;;;;;4.50;3.20;;;29.20;58.80;;;;;;5041340;28;20998;-50
2022/07/31 09:02:33;;;;;;;3.90;2.90;;;29.20;58.90;;;;;;5029554;28;20475;-50
2022/07/31 09:05:00;;;;;;;3.00;2.50;;;29.20;59.40;;;;;;5041488;28;20475;-49
2022/07/31 09:07:27;;;;;;;3.43;3.00;;;29.30;59.80;;;;;;5043495;28;20541;-50
2022/07/31 09:09:53;;;;;;;3.33;3.03;;;29.40;60.80;;;;;;5040620;28;20996;-49
2022/07/31 09:12:29;;;;;;;4.60;2.47;;;29.80;58.60;;;;;;5039651;28;20981;-50
2022/07/31 09:14:55;;;;;;;4.70;2.97;;;29.90;59.30;;;;;;5042466;28;20480;-49
2022/07/31 09:17:32;;;;;;;4.80;3.50;;;30.10;58.30;;;;;;5040586;28;20534;-50
2022/07/31 09:19:59;;;;;;;7.43;2.80;;;30.20;58.00;;;;;;5041613;28;20479;-50
2022/07/31 09:22:28;;;;;;;4.30;2.63;;;30.30;57.60;;;;;;5039223;28;20480;-50
2022/07/31 09:25:05;;;;;;;7.17;2.77;;;30.10;57.20;;;;;;5039162;28;20483;-50
2022/07/31 09:27:33;;;;;;;4.00;2.60;;;30.10;57.90;;;;;;5044594;28;20457;-51
2022/07/31 09:30:01;;;;;;;5.43;3.00;;;30.30;57.30;;;;;;5041402;28;20462;-50
2022/07/31 09:32:27;;;;;;;4.03;3.17;;;30.30;57.20;;;;;;5039759;28;20541;-50
2022/07/31 09:34:54;;;;;;;6.13;3.33;;;30.50;57.00;;;;;;5043287;28;20447;-50
2022/07/31 09:37:26;;;;;;;3.00;2.60;;;30.60;56.40;;;;;;5043183;28;20483;-50
2022/07/31 09:39:54;;;;;;;4.90;2.80;;;30.50;56.80;;;;;;5038576;28;20455;-50
2022/07/31 09:42:21;;;;;;;4.57;2.33;;;30.20;57.70;;;;;;5038775;28;20858;-51
2022/07/31 09:44:51;;;;;;;5.27;3.07;;;30.50;57.80;;;;;;5040659;28;20492;-50
2022/07/31 09:47:22;;;;;;;3.13;2.77;;;30.50;58.40;;;;;;5040467;28;20458;-51
2022/07/31 09:49:54;;;;;;;3.33;2.57;;;30.60;58.20;;;;;;5041149;28;20457;-49
2022/07/31 09:52:21;;;;;;;7.73;2.80;;;30.70;56.60;;;;;;5040139;28;20464;-51
2022/07/31 09:54:48;;;;;;;3.23;2.93;;;;;;;;;;5028938;28;20459;-50
2022/07/31 09:57:15;;;;;;;3.10;2.50;;;30.70;57.70;;;;;;5053277;28;20480;-51
2022/07/31 09:59:42;;;;;;;2.87;2.67;;;30.60;58.30;;;;;;5044335;28;20454;-50
2022/07/31 10:02:15;;;;;;;3.43;2.90;;;30.50;56.90;;;;;;5039285;28;20914;-49
2022/07/31 10:04:43;;;;;;;5.40;3.33;;;30.50;57.00;;;;;;5028035;28;20979;-50
2022/07/31 10:07:12;;;;;;;2.80;2.20;;;30.90;56.90;;;;;;5041326;28;20525;-50
2022/07/31 10:09:40;;;;;;;3.20;2.90;;;31.10;56.30;;;;;;5039484;28;20480;-50
2022/07/31 10:12:13;;;;;;;2.90;2.50;;;31.40;56.10;;;;;;5042734;28;21176;-50
2022/07/31 10:14:43;;;;;;;7.07;2.97;;;31.30;55.90;;;;;;5037789;28;20483;-49
2022/07/31 10:17:14;;;;;;;3.23;2.53;;;31.50;55.30;;;;;;5040907;28;20455;-49
2022/07/31 10:19:45;;;;;;;4.17;2.70;;;31.60;55.30;;;;;;5022154;28;20487;-52
2022/07/31 10:22:17;;;;;;;9.53;3.00;;;31.30;55.30;;;;;;5061830;28;20478;-51
2022/07/31 10:24:46;;;;;;;4.63;2.10;;;31.20;56.00;;;;;;5045337;28;20465;-50
2022/07/31 10:27:14;;;;;;;2.63;2.43;;;31.00;55.60;;;;;;5032579;28;20454;-50
2022/07/31 10:29:41;;;;;;;4.97;2.87;;;31.00;56.30;;;;;;5049734;28;22493;-49
2022/07/31 10:32:09;;;;;;;3.03;2.20;;;31.00;56.00;;;;;;5039049;28;20476;-49
2022/07/31 10:34:37;;;;;;;2.80;2.60;;;31.30;55.30;;;;;;5037356;28;20525;-50
2022/07/31 10:37:09;;;;;;;5.10;2.80;;;31.50;55.10;;;;;;5039972;28;20483;-49
2022/07/31 10:39:53;;;;;;;2.50;2.30;;;31.60;54.90;;;;;;5036223;28;20959;-50
2022/07/31 10:42:37;;;;;;;4.20;2.00;;;32.00;55.10;;;;;;5038791;28;20592;-50
2022/07/31 10:45:07;;;;;;;5.83;2.33;;;31.90;53.70;;;;;;5037765;28;20503;-50
2022/07/31 10:47:34;;;;;;;4.30;2.70;;;31.90;53.00;;;;;;5035328;28;20905;-50
2022/07/31 10:50:04;;;;;;;4.20;2.40;;;31.80;52.80;;;;;;5037729;28;20491;-50
2022/07/31 10:52:35;;;;;;;4.53;2.00;;;31.80;53.20;;;;;;5032065;28;20463;-51
2022/07/31 10:55:02;;;;;;;3.33;2.60;;;31.70;52.80;;;;;;5045014;28;20560;-50
2022/07/31 10:57:31;;;;;;;10.07;2.53;;;31.60;53.40;;;;;;5040092;28;20551;-50
2022/07/31 11:00:10;;;;;;;7.83;2.83;;;31.50;53.50;;;;;;5045773;28;20446;-50
2022/07/31 11:02:37;;;;;;;2.47;2.27;;;31.50;54.00;;;;;;5034013;28;20477;-49
2022/07/31 11:05:09;;;;;;;3.83;2.80;;;;;;;;;;5037608;28;20457;-51
2022/07/31 11:07:36;;;;;;;2.30;2.03;;;31.90;53.70;;;;;;5036732;28;23216;-49
2022/07/31 11:10:15;;;;;;;2.40;2.20;;;32.00;53.80;;;;;;5036435;28;20480;-50
2022/07/31 11:12:42;;;;;;;3.00;2.40;;;31.90;52.80;;;;;;5036132;28;20475;-49
2022/07/31 11:15:19;;;;;;;4.27;2.70;;;31.90;53.60;;;;;;5040857;28;20461;-50
2022/07/31 11:17:46;;;;;;;3.37;2.50;;;31.70;51.80;;;;;;5039979;28;20475;-49
2022/07/31 11:20:24;;;;;;;3.50;2.30;;;31.70;52.30;;;;;;5043004;28;20525;-49
2022/07/31 11:23:09;;;;;;;2.30;2.10;;;31.70;52.90;;;;;;5039099;28;20591;-50
2022/07/31 11:25:37;;;;;;;2.93;2.20;;;31.70;52.00;;;;;;5039492;28;21128;-48
2022/07/31 11:28:11;;;;;;;3.00;2.17;;;31.80;52.30;;;;;;5040068;28;21052;-49
2022/07/31 11:30:52;;;;;;;4.33;1.93;;;31.90;53.10;;;;;;5040745;28;20514;-48
2022/07/31 11:33:43;;;;;;;3.73;2.20;;;32.00;51.40;;;;;;5043061;28;20479;-49
2022/07/31 11:36:13;;;;;;;3.33;2.20;;;32.00;52.40;;;;;;5027868;28;20780;-51
2022/07/31 11:38:42;;;;;;;9.43;2.63;;;31.90;51.70;;;;;;5043071;28;20809;-50
2022/07/31 11:41:09;;;;;;;3.50;2.20;;;32.10;51.70;;;;;;5040228;28;20488;-51
2022/07/31 11:43:38;;;;;;;2.50;1.97;;;32.30;52.70;;;;;;5038179;28;20992;-49
2022/07/31 11:46:05;;;;;;;3.53;2.27;;;32.20;52.40;;;;;;5045544;28;20537;-50
2022/07/31 11:48:32;;;;;;;3.40;1.90;;;32.40;50.20;;;;;;5041710;28;20453;-50
2022/07/31 11:50:59;;;;;;;4.27;2.20;;;32.50;50.40;;;;;;5042378;28;20475;-51
2022/07/31 11:53:27;;;;;;;3.33;1.90;;;32.50;50.90;;;;;;5031511;28;20490;-49
2022/07/31 11:55:56;;;;;;;3.03;2.00;;;32.50;51.10;;;;;;5052568;28;20483;-50
2022/07/31 11:58:25;;;;;;;3.40;2.00;;;32.50;50.40;;;;;;5042151;28;20459;-50
2022/07/31 12:00:53;;;;;;;2.20;2.00;;;32.40;51.50;;;;;;5039244;28;20519;-49
2022/07/31 12:03:22;;;;;;;2.73;1.90;;;32.50;51.50;;;;;;5037709;28;20480;-51
2022/07/31 12:05:51;;;;;;;2.57;1.90;;;32.70;50.20;;;;;;5039342;28;20568;-50
2022/07/31 12:08:18;;;;;;;3.23;2.10;;;32.90;50.60;;;;;;5029076;28;20504;-50
2022/07/31 12:10:47;;;;;;;2.90;2.57;;;32.90;50.30;;;;;;5041621;28;20475;-49
2022/07/31 12:13:15;;;;;;;2.40;2.03;;;32.90;51.50;;;;;;5042430;28;20973;-49
2022/07/31 12:15:52;;;;;;;3.47;2.00;;;32.90;51.30;;;;;;5035977;28;20503;-50
2022/07/31 12:18:19;;;;;;;2.40;2.17;;;33.00;51.00;;;;;;5029783;28;20467;-49
2022/07/31 12:20:52;;;;;;;2.40;2.20;;;33.00;50.80;;;;;;5042872;28;20471;-49
2022/07/31 12:23:19;;;;;;;3.30;2.10;;;32.80;50.00;;;;;;5042581;28;20493;-51
2022/07/31 12:25:47;;;;;;;4.53;2.10;;;32.50;49.90;;;;;;5031385;28;20996;-49
2022/07/31 12:28:14;;;;;;;2.90;1.80;;;32.70;50.30;;;;;;5063404;28;20480;-48
2022/07/31 12:30:41;;;;;;;2.40;2.20;;;32.70;51.60;;;;;;5039340;28;20923;-48
2022/07/31 12:33:09;;;;;;;2.70;1.80;;;32.60;50.10;;;;;;5062759;28;20497;-49
2022/07/31 12:35:37;;;;;;;9.70;2.20;;;32.50;50.60;;;;;;5043042;28;20550;-49
2022/07/31 12:38:05;;;;;;;2.10;1.90;;;32.50;50.90;;;;;;5041389;28;20492;-50
2022/07/31 12:40:32;;;;;;;1.93;1.60;;;32.60;50.10;;;;;;5038482;28;20454;-48
2022/07/31 12:43:00;;;;;;;1.90;1.60;;;32.60;50.20;;;;;;5040551;28;20827;-49
2022/07/31 12:45:32;;;;;;;5.40;1.93;;;33.00;50.30;;;;;;5040124;28;20476;-49
2022/07/31 12:47:59;;;;;;;1.90;1.43;;;33.20;49.10;;;;;;5041616;28;20453;-50
2022/07/31 12:50:27;;;;;;;3.60;1.63;;;33.20;49.90;;;;;;5043023;28;20541;-49
2022/07/31 12:52:58;;;;;;;2.10;1.33;;;33.40;49.30;;;;;;5037683;28;20495;-50